Wind From: 11-12-2017 07:30 Until: 12-12-2017 06:00 warning for: Wind Level: Orange info button

Power and phone distribution networks may be disrupted for relatively long periods., Roofs and chimneys can be damaged. , Tree branches may break. , Vehicles can be deported. , Traffic may be disrupted, particularly on secondary roads in forest areas. Limit your trips. , Limit your speed in highway driving, especially if you drive a vehicle or hitch sensitive to wind. , Do not go for walks in forests or along the coast., In town, be vigilant against possible falling objects., Do not work on roofs and do not touch any electrical line fallen on the ground., Store or secure sensitive objects to wind or likely to be damaged., Always install power generators outside buildings. 


Meteo18 Weather Cam more information Meteo18 Weather Cam


Thunder radar more information blitzortung!


Rain radar more information rain snow radar


Visit our other weather sites:

Template documentation
and downloads

And another site



Weather Underground History page Text

Daily Summary for November 12, 2017 Units:  Both    English   Metric
« Previous Day
Next Day »
Daily Weekly Monthly Yearly Custom
  High: Low: Average:
Temperature: 53.8 °F /  12.1 °C 39.6 °F /  4.2 °C 46.8 °F /  8.2 °C
Dew Point: 52.2 °F /  11.2 °C 35.6 °F /  2.0 °C 43.3 °F /  6.3 °C
Humidity: 95 % 76 % 88 %
Wind Speed: 23 mph /  37.0 km/h - 9.2 mph /  14.8 km/h
Wind Gust: 33 mph /  53.1 km/h - -
Wind:- - WNW
Pressure: 30 in /  1016.5 hPa 29.7 in /  1006.3 hPa -
Precipitation: 0.2 in /  5.1 mm    
Historical Graphs
 
 
Tabular Data for November 12, 2017
Time Temperature Dew Point Pressure Wind Wind Speed Wind Gust Humidity Rainfall Rate (Hourly)
00:02 53.8 °F /  12.1 °C 52.2 °F /  11.2 °C 30 in /  1015.8 hPa West 4 mph /  6.4 km/h 17 mph /  27.4 km/h 94 % 0.01 in /  0.3 mm
00:07 53.6 °F /  12.0 °C 52.2 °F /  11.2 °C 30 in /  1015.8 hPa WSW 8 mph /  12.9 km/h 17 mph /  27.4 km/h 95 % 0.01 in /  0.3 mm
00:12 53.6 °F /  12.0 °C 52.2 °F /  11.2 °C 30 in /  1015.8 hPa West 5 mph /  8.0 km/h 13 mph /  20.9 km/h 95 % 0.01 in /  0.3 mm
00:17 53.4 °F /  11.9 °C 52 °F /  11.1 °C 30 in /  1015.8 hPa West 8 mph /  12.9 km/h 13 mph /  20.9 km/h 95 % 0 in /  0.0 mm
00:22 53.4 °F /  11.9 °C 52 °F /  11.1 °C 30 in /  1015.8 hPa WNW 6 mph /  9.7 km/h 14 mph /  22.5 km/h 95 % 0 in /  0.0 mm
00:32 53.4 °F /  11.9 °C 52 °F /  11.1 °C 30 in /  1015.8 hPa WSW 8 mph /  12.9 km/h 14 mph /  22.5 km/h 95 % 0.01 in /  0.3 mm
00:42 53.2 °F /  11.8 °C 51.8 °F /  11.0 °C 30 in /  1015.8 hPa West 10 mph /  16.1 km/h 13 mph /  20.9 km/h 95 % 0.01 in /  0.3 mm
00:47 53.2 °F /  11.8 °C 51.8 °F /  11.0 °C 30 in /  1015.8 hPa West 6 mph /  9.7 km/h 13 mph /  20.9 km/h 95 % 0.01 in /  0.3 mm
00:57 53.2 °F /  11.8 °C 51.8 °F /  11.0 °C 30 in /  1015.5 hPa West 7 mph /  11.3 km/h 12 mph /  19.3 km/h 95 % 0.01 in /  0.3 mm
01:02 53.2 °F /  11.8 °C 51.8 °F /  11.0 °C 30 in /  1015.5 hPa WSW 8 mph /  12.9 km/h 15 mph /  24.1 km/h 95 % 0.01 in /  0.3 mm
01:07 53.4 °F /  11.9 °C 52 °F /  11.1 °C 30 in /  1015.5 hPa West 9 mph /  14.5 km/h 15 mph /  24.1 km/h 95 % 0.01 in /  0.3 mm
01:12 53.2 °F /  11.8 °C 51.8 °F /  11.0 °C 30 in /  1015.5 hPa West 7 mph /  11.3 km/h 18 mph /  29.0 km/h 95 % 0.01 in /  0.3 mm
01:17 53.2 °F /  11.8 °C 51.8 °F /  11.0 °C 30 in /  1015.5 hPa WSW 12 mph /  19.3 km/h 18 mph /  29.0 km/h 95 % 0.01 in /  0.3 mm
01:22 53.1 °F /  11.7 °C 51.6 °F /  10.9 °C 30 in /  1015.5 hPa West 7 mph /  11.3 km/h 17 mph /  27.4 km/h 95 % 0.01 in /  0.3 mm
01:27 53.1 °F /  11.7 °C 51.6 °F /  10.9 °C 30 in /  1015.5 hPa WSW 10 mph /  16.1 km/h 18 mph /  29.0 km/h 95 % 0.02 in /  0.5 mm
01:32 53.1 °F /  11.7 °C 51.6 °F /  10.9 °C 30 in /  1015.1 hPa West 10 mph /  16.1 km/h 18 mph /  29.0 km/h 95 % 0.01 in /  0.3 mm
01:37 53.1 °F /  11.7 °C 51.6 °F /  10.9 °C 30 in /  1015.5 hPa WNW 5 mph /  8.0 km/h 17 mph /  27.4 km/h 95 % 0.01 in /  0.3 mm
01:42 53.1 °F /  11.7 °C 51.6 °F /  10.9 °C 30 in /  1015.1 hPa West 10 mph /  16.1 km/h 20 mph /  32.2 km/h 95 % 0.01 in /  0.3 mm
01:47 52.9 °F /  11.6 °C 51.4 °F /  10.8 °C 30 in /  1015.1 hPa West 9 mph /  14.5 km/h 20 mph /  32.2 km/h 95 % 0.01 in /  0.3 mm
01:52 52.9 °F /  11.6 °C 51.4 °F /  10.8 °C 30 in /  1015.1 hPa West 10 mph /  16.1 km/h 15 mph /  24.1 km/h 95 % 0.01 in /  0.3 mm
01:57 52.9 °F /  11.6 °C 51.4 °F /  10.8 °C 30 in /  1015.1 hPa West 6 mph /  9.7 km/h 18 mph /  29.0 km/h 95 % 0.01 in /  0.3 mm
02:02 52.9 °F /  11.6 °C 51.3 °F /  10.7 °C 30 in /  1015.1 hPa WNW 7 mph /  11.3 km/h 18 mph /  29.0 km/h 94 % 0.01 in /  0.3 mm
02:07 52.9 °F /  11.6 °C 51.3 °F /  10.7 °C 30 in /  1015.1 hPa WSW 8 mph /  12.9 km/h 15 mph /  24.1 km/h 94 % 0.01 in /  0.3 mm
02:12 52.9 °F /  11.6 °C 51.3 °F /  10.7 °C 30 in /  1015.1 hPa West 12 mph /  19.3 km/h 16 mph /  25.7 km/h 94 % 0.01 in /  0.3 mm
02:17 52.9 °F /  11.6 °C 51.3 °F /  10.7 °C 30 in /  1015.1 hPa West 8 mph /  12.9 km/h 18 mph /  29.0 km/h 94 % 0.01 in /  0.3 mm
02:22 52.2 °F /  11.2 °C 50.5 °F /  10.3 °C 30 in /  1015.1 hPa West 10 mph /  16.1 km/h 18 mph /  29.0 km/h 94 % 0 in /  0.0 mm
02:27 52 °F /  11.1 °C 50.4 °F /  10.2 °C 30 in /  1015.1 hPa WSW 8 mph /  12.9 km/h 18 mph /  29.0 km/h 94 % 0 in /  0.0 mm
02:32 52 °F /  11.1 °C 50.4 °F /  10.2 °C 30 in /  1014.8 hPa WSW 8 mph /  12.9 km/h 17 mph /  27.4 km/h 94 % 0 in /  0.0 mm
02:37 52 °F /  11.1 °C 50.4 °F /  10.2 °C 30 in /  1014.8 hPa WSW 8 mph /  12.9 km/h 14 mph /  22.5 km/h 94 % 0 in /  0.0 mm
09:07 51.6 °F /  10.9 °C 49.6 °F /  9.8 °C 29.8 in /  1010.4 hPa WNW 10 mph /  16.1 km/h 23 mph /  37.0 km/h 93 % 0 in /  0.0 mm
09:12 51.6 °F /  10.9 °C 49.6 °F /  9.8 °C 29.8 in /  1010.7 hPa SSW 8 mph /  12.9 km/h 26 mph /  41.8 km/h 93 % 0 in /  0.0 mm
09:17 51.6 °F /  10.9 °C 49.6 °F /  9.8 °C 29.8 in /  1010.4 hPa WSW 13 mph /  20.9 km/h 26 mph /  41.8 km/h 93 % 0 in /  0.0 mm
09:22 51.6 °F /  10.9 °C 49.6 °F /  9.8 °C 29.8 in /  1010.4 hPa West 15 mph /  24.1 km/h 28 mph /  45.1 km/h 93 % 0 in /  0.0 mm
09:27 51.6 °F /  10.9 °C 49.6 °F /  9.8 °C 29.8 in /  1010.0 hPa WSW 10 mph /  16.1 km/h 28 mph /  45.1 km/h 93 % 0 in /  0.0 mm
09:32 51.6 °F /  10.9 °C 49.6 °F /  9.8 °C 29.8 in /  1010.4 hPa West 8 mph /  12.9 km/h 28 mph /  45.1 km/h 93 % 0 in /  0.0 mm
09:42 51.8 °F /  11.0 °C 49.8 °F /  9.9 °C 29.8 in /  1010.4 hPa WSW 6 mph /  9.7 km/h 25 mph /  40.2 km/h 93 % 0 in /  0.0 mm
09:47 52 °F /  11.1 °C 49.6 °F /  9.8 °C 29.8 in /  1010.0 hPa WSW 17 mph /  27.4 km/h 25 mph /  40.2 km/h 92 % 0 in /  0.0 mm
09:52 52 °F /  11.1 °C 49.6 °F /  9.8 °C 29.8 in /  1010.0 hPa WSW 14 mph /  22.5 km/h 23 mph /  37.0 km/h 92 % 0 in /  0.0 mm
10:02 52.2 °F /  11.2 °C 49.8 °F /  9.9 °C 29.8 in /  1010.0 hPa WSW 7 mph /  11.3 km/h 27 mph /  43.4 km/h 92 % 0 in /  0.0 mm
10:07 52.2 °F /  11.2 °C 49.8 °F /  9.9 °C 29.8 in /  1010.0 hPa WSW 14 mph /  22.5 km/h 29 mph /  46.7 km/h 92 % 0 in /  0.0 mm
10:12 52.2 °F /  11.2 °C 49.8 °F /  9.9 °C 29.8 in /  1010.0 hPa WSW 13 mph /  20.9 km/h 33 mph /  53.1 km/h 92 % 0 in /  0.0 mm
10:17 52.2 °F /  11.2 °C 49.8 °F /  9.9 °C 29.8 in /  1010.0 hPa WSW 10 mph /  16.1 km/h 33 mph /  53.1 km/h 92 % 0 in /  0.0 mm
10:22 52.2 °F /  11.2 °C 50.2 °F /  10.1 °C 29.8 in /  1009.7 hPa WSW 10 mph /  16.1 km/h 33 mph /  53.1 km/h 93 % 0 in /  0.0 mm
10:32 52.2 °F /  11.2 °C 50.2 °F /  10.1 °C 29.8 in /  1009.7 hPa SW 17 mph /  27.4 km/h 26 mph /  41.8 km/h 93 % 0 in /  0.0 mm
10:42 52 °F /  11.1 °C 50.4 °F /  10.2 °C 29.8 in /  1009.4 hPa SW 12 mph /  19.3 km/h 21 mph /  33.8 km/h 94 % 0 in /  0.0 mm
10:52 52 °F /  11.1 °C 50.5 °F /  10.3 °C 29.8 in /  1009.4 hPa WSW 10 mph /  16.1 km/h 21 mph /  33.8 km/h 95 % 0.01 in /  0.3 mm
10:57 52 °F /  11.1 °C 50.5 °F /  10.3 °C 29.8 in /  1009.4 hPa WSW 7 mph /  11.3 km/h 24 mph /  38.6 km/h 95 % 0.02 in /  0.5 mm
11:02 52 °F /  11.1 °C 50.5 °F /  10.3 °C 29.8 in /  1009.4 hPa West 14 mph /  22.5 km/h 24 mph /  38.6 km/h 95 % 0.02 in /  0.5 mm
11:12 52.2 °F /  11.2 °C 50.7 °F /  10.4 °C 29.8 in /  1009.4 hPa WSW 10 mph /  16.1 km/h 23 mph /  37.0 km/h 95 % 0.02 in /  0.5 mm
11:17 52.2 °F /  11.2 °C 50.7 °F /  10.4 °C 29.8 in /  1009.0 hPa West 6 mph /  9.7 km/h 23 mph /  37.0 km/h 95 % 0.02 in /  0.5 mm
11:22 52.2 °F /  11.2 °C 50.7 °F /  10.4 °C 29.8 in /  1009.0 hPa West 11 mph /  17.7 km/h 20 mph /  32.2 km/h 95 % 0.02 in /  0.5 mm
11:32 52.3 °F /  11.3 °C 50.7 °F /  10.4 °C 29.8 in /  1008.4 hPa WSW 13 mph /  20.9 km/h 20 mph /  32.2 km/h 94 % 0.02 in /  0.5 mm
11:42 52.5 °F /  11.4 °C 50.9 °F /  10.5 °C 29.8 in /  1008.4 hPa West 21 mph /  33.8 km/h 22 mph /  35.4 km/h 94 % 0.02 in /  0.5 mm
11:47 52.5 °F /  11.4 °C 50.9 °F /  10.5 °C 29.8 in /  1008.4 hPa WSW 11 mph /  17.7 km/h 22 mph /  35.4 km/h 94 % 0.01 in /  0.3 mm
11:52 52.9 °F /  11.6 °C 51.3 °F /  10.7 °C 29.8 in /  1008.0 hPa NW 11 mph /  17.7 km/h 22 mph /  35.4 km/h 94 % 0 in /  0.0 mm
11:57 52.9 °F /  11.6 °C 51.3 °F /  10.7 °C 29.8 in /  1008.0 hPa WSW 14 mph /  22.5 km/h 25 mph /  40.2 km/h 94 % 0 in /  0.0 mm
12:02 52.9 °F /  11.6 °C 51.3 °F /  10.7 °C 29.8 in /  1008.0 hPa WSW 10 mph /  16.1 km/h 25 mph /  40.2 km/h 94 % 0 in /  0.0 mm
12:07 52.9 °F /  11.6 °C 50.9 °F /  10.5 °C 29.8 in /  1007.7 hPa West 16 mph /  25.7 km/h 25 mph /  40.2 km/h 93 % 0 in /  0.0 mm
12:12 52.9 °F /  11.6 °C 51.3 °F /  10.7 °C 29.8 in /  1007.7 hPa WSW 13 mph /  20.9 km/h 25 mph /  40.2 km/h 94 % 0 in /  0.0 mm
12:17 52.9 °F /  11.6 °C 51.3 °F /  10.7 °C 29.8 in /  1007.7 hPa WSW 12 mph /  19.3 km/h 25 mph /  40.2 km/h 94 % 0 in /  0.0 mm
12:32 53.1 °F /  11.7 °C 51.1 °F /  10.6 °C 29.7 in /  1007.0 hPa WSW 15 mph /  24.1 km/h 20 mph /  32.2 km/h 93 % 0.01 in /  0.3 mm
12:37 53.2 °F /  11.8 °C 51.3 °F /  10.7 °C 29.7 in /  1007.0 hPa West 13 mph /  20.9 km/h 33 mph /  53.1 km/h 93 % 0.01 in /  0.3 mm
12:42 53.2 °F /  11.8 °C 51.3 °F /  10.7 °C 29.7 in /  1006.7 hPa West 12 mph /  19.3 km/h 33 mph /  53.1 km/h 93 % 0.01 in /  0.3 mm
12:47 53.2 °F /  11.8 °C 51.3 °F /  10.7 °C 29.7 in /  1006.7 hPa West 14 mph /  22.5 km/h 33 mph /  53.1 km/h 93 % 0.01 in /  0.3 mm
12:52 53.6 °F /  12.0 °C 51.6 °F /  10.9 °C 29.7 in /  1006.7 hPa West 14 mph /  22.5 km/h 28 mph /  45.1 km/h 93 % 0.01 in /  0.3 mm
12:57 53.8 °F /  12.1 °C 51.8 °F /  11.0 °C 29.7 in /  1006.3 hPa West 17 mph /  27.4 km/h 26 mph /  41.8 km/h 93 % 0.01 in /  0.3 mm
13:02 53.8 °F /  12.1 °C 51.8 °F /  11.0 °C 29.7 in /  1006.3 hPa West 15 mph /  24.1 km/h 26 mph /  41.8 km/h 93 % 0.01 in /  0.3 mm
13:07 53.8 °F /  12.1 °C 51.8 °F /  11.0 °C 29.7 in /  1006.3 hPa WSW 18 mph /  29.0 km/h 27 mph /  43.4 km/h 93 % 0.01 in /  0.3 mm
13:12 53.8 °F /  12.1 °C 51.8 °F /  11.0 °C 29.7 in /  1006.3 hPa West 23 mph /  37.0 km/h 27 mph /  43.4 km/h 93 % 0.01 in /  0.3 mm
13:17 53.8 °F /  12.1 °C 51.8 °F /  11.0 °C 29.7 in /  1006.3 hPa West 12 mph /  19.3 km/h 30 mph /  48.3 km/h 93 % 0.01 in /  0.3 mm
13:22 53.8 °F /  12.1 °C 51.8 °F /  11.0 °C 29.7 in /  1007.3 hPa NW 9 mph /  14.5 km/h 30 mph /  48.3 km/h 93 % 0 in /  0.0 mm
13:27 52.2 °F /  11.2 °C 49.1 °F /  9.5 °C 29.8 in /  1007.7 hPa NNW 17 mph /  27.4 km/h 33 mph /  53.1 km/h 89 % 0.07 in /  1.8 mm
13:32 50.7 °F /  10.4 °C 48.2 °F /  9.0 °C 29.8 in /  1007.7 hPa NW 10 mph /  16.1 km/h 33 mph /  53.1 km/h 91 % 0.08 in /  2.0 mm
13:37 49.8 °F /  9.9 °C 47.7 °F /  8.7 °C 29.8 in /  1007.7 hPa NW 16 mph /  25.7 km/h 33 mph /  53.1 km/h 92 % 0.09 in /  2.3 mm
13:42 49.6 °F /  9.8 °C 47.7 °F /  8.7 °C 29.7 in /  1007.3 hPa WNW 10 mph /  16.1 km/h 27 mph /  43.4 km/h 93 % 0.1 in /  2.5 mm
13:47 49.5 °F /  9.7 °C 47.5 °F /  8.6 °C 29.8 in /  1007.7 hPa NW 10 mph /  16.1 km/h 25 mph /  40.2 km/h 93 % 0.1 in /  2.5 mm
13:52 49.5 °F /  9.7 °C 47.5 °F /  8.6 °C 29.8 in /  1008.0 hPa North 14 mph /  22.5 km/h 23 mph /  37.0 km/h 93 % 0.1 in /  2.5 mm
13:57 47.7 °F /  8.7 °C 45.1 °F /  7.3 °C 29.8 in /  1008.4 hPa North 13 mph /  20.9 km/h 24 mph /  38.6 km/h 91 % 0.11 in /  2.8 mm
14:02 46.9 °F /  8.3 °C 44.8 °F /  7.1 °C 29.8 in /  1008.4 hPa NW 14 mph /  22.5 km/h 24 mph /  38.6 km/h 92 % 0.11 in /  2.8 mm
14:07 46.6 °F /  8.1 °C 44.6 °F /  7.0 °C 29.8 in /  1008.4 hPa NNW 15 mph /  24.1 km/h 27 mph /  43.4 km/h 93 % 0.12 in /  3.0 mm
14:12 46.2 °F /  7.9 °C 44.2 °F /  6.8 °C 29.8 in /  1008.4 hPa NNE 10 mph /  16.1 km/h 27 mph /  43.4 km/h 93 % 0.13 in /  3.3 mm
14:17 46.2 °F /  7.9 °C 44.2 °F /  6.8 °C 29.8 in /  1008.7 hPa NNW 6 mph /  9.7 km/h 27 mph /  43.4 km/h 93 % 0.13 in /  3.3 mm
14:22 45.9 °F /  7.7 °C 43.9 °F /  6.6 °C 29.8 in /  1008.7 hPa WNW 7 mph /  11.3 km/h 21 mph /  33.8 km/h 93 % 0.13 in /  3.3 mm
14:27 45.9 °F /  7.7 °C 44.2 °F /  6.8 °C 29.8 in /  1009.0 hPa NW 10 mph /  16.1 km/h 21 mph /  33.8 km/h 94 % 0.06 in /  1.5 mm
14:32 45.7 °F /  7.6 °C 44.1 °F /  6.7 °C 29.8 in /  1008.7 hPa NW 15 mph /  24.1 km/h 21 mph /  33.8 km/h 94 % 0.06 in /  1.5 mm
14:37 45.7 °F /  7.6 °C 43.7 °F /  6.5 °C 29.8 in /  1008.4 hPa WSW 8 mph /  12.9 km/h 19 mph /  30.6 km/h 93 % 0.06 in /  1.5 mm
14:42 45.9 °F /  7.7 °C 43.7 °F /  6.5 °C 29.8 in /  1008.7 hPa NW 11 mph /  17.7 km/h 19 mph /  30.6 km/h 92 % 0.06 in /  1.5 mm
14:47 46 °F /  7.8 °C 43.5 °F /  6.4 °C 29.8 in /  1008.4 hPa NW 4 mph /  6.4 km/h 18 mph /  29.0 km/h 91 % 0.06 in /  1.5 mm
14:52 46.2 °F /  7.9 °C 43.7 °F /  6.5 °C 29.8 in /  1008.4 hPa NW 9 mph /  14.5 km/h 18 mph /  29.0 km/h 91 % 0.06 in /  1.5 mm
14:57 46.2 °F /  7.9 °C 43.7 °F /  6.5 °C 29.8 in /  1008.4 hPa West 11 mph /  17.7 km/h 18 mph /  29.0 km/h 91 % 0.05 in /  1.3 mm
15:02 46.4 °F /  8.0 °C 43.9 °F /  6.6 °C 29.8 in /  1008.7 hPa WNW 7 mph /  11.3 km/h 17 mph /  27.4 km/h 91 % 0.05 in /  1.3 mm
15:07 46.6 °F /  8.1 °C 44.1 °F /  6.7 °C 29.8 in /  1008.7 hPa NNW 11 mph /  17.7 km/h 18 mph /  29.0 km/h 91 % 0.03 in /  0.8 mm
15:17 46.6 °F /  8.1 °C 43.5 °F /  6.4 °C 29.8 in /  1008.4 hPa NW 8 mph /  12.9 km/h 21 mph /  33.8 km/h 89 % 0.02 in /  0.5 mm
15:22 46.6 °F /  8.1 °C 43.2 °F /  6.2 °C 29.8 in /  1008.7 hPa NNW 12 mph /  19.3 km/h 21 mph /  33.8 km/h 88 % 0.02 in /  0.5 mm
15:32 46.8 °F /  8.2 °C 42.4 °F /  5.8 °C 29.8 in /  1009.0 hPa WNW 10 mph /  16.1 km/h 25 mph /  40.2 km/h 85 % 0.01 in /  0.3 mm
15:37 46.8 °F /  8.2 °C 42.3 °F /  5.7 °C 29.8 in /  1009.0 hPa NNW 12 mph /  19.3 km/h 30 mph /  48.3 km/h 84 % 0 in /  0.0 mm
15:42 46.8 °F /  8.2 °C 41.9 °F /  5.5 °C 29.8 in /  1009.0 hPa WNW 9 mph /  14.5 km/h 30 mph /  48.3 km/h 83 % 0 in /  0.0 mm
15:47 46.6 °F /  8.1 °C 40.8 °F /  4.9 °C 29.8 in /  1009.4 hPa WNW 17 mph /  27.4 km/h 21 mph /  33.8 km/h 80 % 0 in /  0.0 mm
15:52 46.4 °F /  8.0 °C 39.2 °F /  4.0 °C 29.8 in /  1009.0 hPa WNW 8 mph /  12.9 km/h 30 mph /  48.3 km/h 76 % 0 in /  0.0 mm
15:57 46 °F /  7.8 °C 39.2 °F /  4.0 °C 29.8 in /  1009.4 hPa West 13 mph /  20.9 km/h 30 mph /  48.3 km/h 77 % 0 in /  0.0 mm
16:02 45.7 °F /  7.6 °C 39.2 °F /  4.0 °C 29.8 in /  1009.4 hPa NW 9 mph /  14.5 km/h 30 mph /  48.3 km/h 78 % 0 in /  0.0 mm
16:07 45.3 °F /  7.4 °C 39.2 °F /  4.0 °C 29.8 in /  1009.7 hPa WNW 8 mph /  12.9 km/h 23 mph /  37.0 km/h 79 % 0 in /  0.0 mm
16:12 45.1 °F /  7.3 °C 39 °F /  3.9 °C 29.8 in /  1009.7 hPa West 10 mph /  16.1 km/h 23 mph /  37.0 km/h 79 % 0 in /  0.0 mm
16:17 45 °F /  7.2 °C 38.8 °F /  3.8 °C 29.8 in /  1009.7 hPa WNW 11 mph /  17.7 km/h 23 mph /  37.0 km/h 79 % 0 in /  0.0 mm
16:22 45 °F /  7.2 °C 38.8 °F /  3.8 °C 29.8 in /  1010.0 hPa NW 14 mph /  22.5 km/h 23 mph /  37.0 km/h 79 % 0 in /  0.0 mm
16:27 45 °F /  7.2 °C 38.5 °F /  3.6 °C 29.8 in /  1010.0 hPa WNW 16 mph /  25.7 km/h 24 mph /  38.6 km/h 78 % 0 in /  0.0 mm
16:32 45.1 °F /  7.3 °C 38.7 °F /  3.7 °C 29.8 in /  1010.0 hPa WNW 16 mph /  25.7 km/h 24 mph /  38.6 km/h 78 % 0 in /  0.0 mm
16:37 45.3 °F /  7.4 °C 38.8 °F /  3.8 °C 29.8 in /  1010.0 hPa NW 13 mph /  20.9 km/h 24 mph /  38.6 km/h 78 % 0 in /  0.0 mm
16:42 45.3 °F /  7.4 °C 38.8 °F /  3.8 °C 29.8 in /  1010.4 hPa NNW 7 mph /  11.3 km/h 24 mph /  38.6 km/h 78 % 0 in /  0.0 mm
16:47 45.3 °F /  7.4 °C 38.8 °F /  3.8 °C 29.8 in /  1010.4 hPa WNW 9 mph /  14.5 km/h 24 mph /  38.6 km/h 78 % 0 in /  0.0 mm
16:52 45.3 °F /  7.4 °C 38.8 °F /  3.8 °C 29.8 in /  1010.4 hPa NW 6 mph /  9.7 km/h 21 mph /  33.8 km/h 78 % 0 in /  0.0 mm
16:57 45 °F /  7.2 °C 38.5 °F /  3.6 °C 29.8 in /  1010.7 hPa NNW 6 mph /  9.7 km/h 21 mph /  33.8 km/h 78 % 0 in /  0.0 mm
17:02 45 °F /  7.2 °C 38.8 °F /  3.8 °C 29.8 in /  1010.7 hPa NW 9 mph /  14.5 km/h 21 mph /  33.8 km/h 79 % 0 in /  0.0 mm
17:07 44.8 °F /  7.1 °C 38.7 °F /  3.7 °C 29.8 in /  1010.7 hPa NW 8 mph /  12.9 km/h 19 mph /  30.6 km/h 79 % 0 in /  0.0 mm
17:12 44.8 °F /  7.1 °C 39 °F /  3.9 °C 29.9 in /  1011.1 hPa WNW 9 mph /  14.5 km/h 19 mph /  30.6 km/h 80 % 0 in /  0.0 mm
17:17 44.4 °F /  6.9 °C 39.2 °F /  4.0 °C 29.9 in /  1011.1 hPa WNW 11 mph /  17.7 km/h 14 mph /  22.5 km/h 82 % 0 in /  0.0 mm
17:22 44.1 °F /  6.7 °C 38.8 °F /  3.8 °C 29.9 in /  1011.4 hPa NW 16 mph /  25.7 km/h 21 mph /  33.8 km/h 82 % 0 in /  0.0 mm
17:27 43.2 °F /  6.2 °C 38.3 °F /  3.5 °C 29.9 in /  1011.4 hPa NNW 9 mph /  14.5 km/h 29 mph /  46.7 km/h 83 % 0 in /  0.0 mm
17:32 42.6 °F /  5.9 °C 37.6 °F /  3.1 °C 29.9 in /  1011.4 hPa WNW 6 mph /  9.7 km/h 29 mph /  46.7 km/h 82 % 0 in /  0.0 mm
17:42 42.1 °F /  5.6 °C 37 °F /  2.8 °C 29.9 in /  1011.4 hPa NW 4 mph /  6.4 km/h 22 mph /  35.4 km/h 82 % 0 in /  0.0 mm
17:47 41.9 °F /  5.5 °C 36.9 °F /  2.7 °C 29.9 in /  1011.7 hPa NW 10 mph /  16.1 km/h 16 mph /  25.7 km/h 82 % 0 in /  0.0 mm
17:52 41.9 °F /  5.5 °C 36.5 °F /  2.5 °C 29.9 in /  1011.7 hPa WNW 10 mph /  16.1 km/h 15 mph /  24.1 km/h 81 % 0 in /  0.0 mm
17:57 41.7 °F /  5.4 °C 36.3 °F /  2.4 °C 29.9 in /  1011.7 hPa NW 7 mph /  11.3 km/h 17 mph /  27.4 km/h 81 % 0 in /  0.0 mm
18:02 41.7 °F /  5.4 °C 36.3 °F /  2.4 °C 29.9 in /  1012.1 hPa WNW 7 mph /  11.3 km/h 17 mph /  27.4 km/h 81 % 0 in /  0.0 mm
18:12 41.5 °F /  5.3 °C 36.1 °F /  2.3 °C 29.9 in /  1012.1 hPa NNW 9 mph /  14.5 km/h 22 mph /  35.4 km/h 81 % 0 in /  0.0 mm
18:17 41.4 °F /  5.2 °C 36.3 °F /  2.4 °C 29.9 in /  1012.1 hPa NW 7 mph /  11.3 km/h 22 mph /  35.4 km/h 82 % 0 in /  0.0 mm
18:22 41.4 °F /  5.2 °C 36.3 °F /  2.4 °C 29.9 in /  1012.4 hPa NNW 8 mph /  12.9 km/h 16 mph /  25.7 km/h 82 % 0 in /  0.0 mm
18:32 41.5 °F /  5.3 °C 36.5 °F /  2.5 °C 29.9 in /  1012.4 hPa WNW 11 mph /  17.7 km/h 17 mph /  27.4 km/h 82 % 0 in /  0.0 mm
18:42 41.4 °F /  5.2 °C 36.5 °F /  2.5 °C 29.9 in /  1012.8 hPa West 9 mph /  14.5 km/h 20 mph /  32.2 km/h 83 % 0 in /  0.0 mm
18:47 41.5 °F /  5.3 °C 36.7 °F /  2.6 °C 29.9 in /  1012.8 hPa NW 9 mph /  14.5 km/h 18 mph /  29.0 km/h 83 % 0 in /  0.0 mm
18:52 41.5 °F /  5.3 °C 36.7 °F /  2.6 °C 29.9 in /  1013.1 hPa NNW 8 mph /  12.9 km/h 18 mph /  29.0 km/h 83 % 0 in /  0.0 mm
18:57 41.5 °F /  5.3 °C 36.7 °F /  2.6 °C 29.9 in /  1013.1 hPa West 7 mph /  11.3 km/h 18 mph /  29.0 km/h 83 % 0 in /  0.0 mm
19:02 41.5 °F /  5.3 °C 36.7 °F /  2.6 °C 29.9 in /  1013.4 hPa WNW 12 mph /  19.3 km/h 18 mph /  29.0 km/h 83 % 0 in /  0.0 mm
19:07 41.5 °F /  5.3 °C 36.7 °F /  2.6 °C 29.9 in /  1013.4 hPa NNW 3 mph /  4.8 km/h 16 mph /  25.7 km/h 83 % 0 in /  0.0 mm
19:12 41.4 °F /  5.2 °C 36.5 °F /  2.5 °C 29.9 in /  1013.4 hPa NW 7 mph /  11.3 km/h 15 mph /  24.1 km/h 83 % 0 in /  0.0 mm
19:17 41.2 °F /  5.1 °C 36.5 °F /  2.5 °C 29.9 in /  1013.8 hPa WNW 7 mph /  11.3 km/h 15 mph /  24.1 km/h 83 % 0 in /  0.0 mm
19:22 41 °F /  5.0 °C 36.5 °F /  2.5 °C 29.9 in /  1013.8 hPa WNW 18 mph /  29.0 km/h 18 mph /  29.0 km/h 84 % 0 in /  0.0 mm
19:27 40.8 °F /  4.9 °C 36.3 °F /  2.4 °C 29.9 in /  1013.8 hPa WNW 9 mph /  14.5 km/h 18 mph /  29.0 km/h 84 % 0 in /  0.0 mm
19:32 40.8 °F /  4.9 °C 36.3 °F /  2.4 °C 29.9 in /  1013.8 hPa NNW 8 mph /  12.9 km/h 18 mph /  29.0 km/h 84 % 0 in /  0.0 mm
19:37 40.6 °F /  4.8 °C 36.1 °F /  2.3 °C 29.9 in /  1013.8 hPa NNW 4 mph /  6.4 km/h 18 mph /  29.0 km/h 84 % 0 in /  0.0 mm
19:42 40.6 °F /  4.8 °C 36.1 °F /  2.3 °C 29.9 in /  1013.8 hPa NW 6 mph /  9.7 km/h 17 mph /  27.4 km/h 84 % 0 in /  0.0 mm
19:47 40.6 °F /  4.8 °C 36.1 °F /  2.3 °C 29.9 in /  1014.1 hPa NW 3 mph /  4.8 km/h 17 mph /  27.4 km/h 84 % 0 in /  0.0 mm
19:57 40.6 °F /  4.8 °C 36.5 °F /  2.5 °C 29.9 in /  1014.1 hPa NW 7 mph /  11.3 km/h 13 mph /  20.9 km/h 85 % 0 in /  0.0 mm
20:07 40.6 °F /  4.8 °C 36.5 °F /  2.5 °C 30 in /  1014.4 hPa NNW 12 mph /  19.3 km/h 13 mph /  20.9 km/h 85 % 0 in /  0.0 mm
20:12 40.6 °F /  4.8 °C 36.5 °F /  2.5 °C 30 in /  1014.4 hPa NNW 7 mph /  11.3 km/h 14 mph /  22.5 km/h 85 % 0 in /  0.0 mm
20:17 40.6 °F /  4.8 °C 36.5 °F /  2.5 °C 30 in /  1014.4 hPa NW 4 mph /  6.4 km/h 16 mph /  25.7 km/h 85 % 0 in /  0.0 mm
20:27 40.5 °F /  4.7 °C 36.7 °F /  2.6 °C 30 in /  1014.8 hPa NW 2 mph /  3.2 km/h 16 mph /  25.7 km/h 86 % 0 in /  0.0 mm
20:32 40.3 °F /  4.6 °C 36.5 °F /  2.5 °C 30 in /  1014.8 hPa WNW 4 mph /  6.4 km/h 13 mph /  20.9 km/h 86 % 0 in /  0.0 mm
20:37 40.3 °F /  4.6 °C 36.5 °F /  2.5 °C 30 in /  1014.8 hPa NW 2 mph /  3.2 km/h 13 mph /  20.9 km/h 86 % 0 in /  0.0 mm
20:42 40.1 °F /  4.5 °C 36.3 °F /  2.4 °C 30 in /  1014.8 hPa NW 3 mph /  4.8 km/h 13 mph /  20.9 km/h 86 % 0 in /  0.0 mm
20:47 40.1 °F /  4.5 °C 36.3 °F /  2.4 °C 30 in /  1014.8 hPa NNW 3 mph /  4.8 km/h 12 mph /  19.3 km/h 86 % 0 in /  0.0 mm
20:52 39.9 °F /  4.4 °C 36.1 °F /  2.3 °C 30 in /  1014.8 hPa NW 2 mph /  3.2 km/h 12 mph /  19.3 km/h 86 % 0 in /  0.0 mm
20:57 39.9 °F /  4.4 °C 36.1 °F /  2.3 °C 30 in /  1015.1 hPa NW 3 mph /  4.8 km/h 12 mph /  19.3 km/h 86 % 0 in /  0.0 mm
21:02 39.9 °F /  4.4 °C 36.1 °F /  2.3 °C 30 in /  1015.1 hPa WNW 3 mph /  4.8 km/h 11 mph /  17.7 km/h 86 % 0 in /  0.0 mm
21:07 39.9 °F /  4.4 °C 36.1 °F /  2.3 °C 30 in /  1015.1 hPa WNW 3 mph /  4.8 km/h 11 mph /  17.7 km/h 86 % 0 in /  0.0 mm
21:12 39.9 °F /  4.4 °C 36.1 °F /  2.3 °C 30 in /  1015.5 hPa NNW 5 mph /  8.0 km/h 9 mph /  14.5 km/h 86 % 0 in /  0.0 mm
21:17 39.7 °F /  4.3 °C 35.6 °F /  2.0 °C 30 in /  1015.5 hPa NW 6 mph /  9.7 km/h 9 mph /  14.5 km/h 85 % 0 in /  0.0 mm
21:22 39.7 °F /  4.3 °C 35.6 °F /  2.0 °C 30 in /  1015.5 hPa NNW 5 mph /  8.0 km/h 11 mph /  17.7 km/h 85 % 0 in /  0.0 mm
21:32 39.7 °F /  4.3 °C 35.6 °F /  2.0 °C 30 in /  1015.5 hPa NW 4 mph /  6.4 km/h 14 mph /  22.5 km/h 85 % 0 in /  0.0 mm
21:37 39.7 °F /  4.3 °C 35.6 °F /  2.0 °C 30 in /  1015.5 hPa West 2 mph /  3.2 km/h 14 mph /  22.5 km/h 85 % 0 in /  0.0 mm
21:42 39.6 °F /  4.2 °C 35.8 °F /  2.1 °C 30 in /  1015.5 hPa WNW 5 mph /  8.0 km/h 14 mph /  22.5 km/h 86 % 0 in /  0.0 mm
21:47 39.6 °F /  4.2 °C 35.8 °F /  2.1 °C 30 in /  1015.5 hPa NW 5 mph /  8.0 km/h 9 mph /  14.5 km/h 86 % 0 in /  0.0 mm
21:52 39.7 °F /  4.3 °C 36 °F /  2.2 °C 30 in /  1015.5 hPa WNW 8 mph /  12.9 km/h 12 mph /  19.3 km/h 86 % 0 in /  0.0 mm
21:57 39.7 °F /  4.3 °C 36 °F /  2.2 °C 30 in /  1015.8 hPa West 8 mph /  12.9 km/h 12 mph /  19.3 km/h 86 % 0 in /  0.0 mm
22:02 39.9 °F /  4.4 °C 35.8 °F /  2.1 °C 30 in /  1015.8 hPa NW 6 mph /  9.7 km/h 12 mph /  19.3 km/h 85 % 0 in /  0.0 mm
22:07 40.1 °F /  4.5 °C 36 °F /  2.2 °C 30 in /  1015.8 hPa Calm   11 mph /  17.7 km/h 85 % 0 in /  0.0 mm
22:12 40.5 °F /  4.7 °C 36.3 °F /  2.4 °C 30 in /  1015.8 hPa West 9 mph /  14.5 km/h 19 mph /  30.6 km/h 85 % 0 in /  0.0 mm
22:17 40.6 °F /  4.8 °C 36.1 °F /  2.3 °C 30 in /  1015.8 hPa NNW 13 mph /  20.9 km/h 19 mph /  30.6 km/h 84 % 0 in /  0.0 mm
22:22 40.8 °F /  4.9 °C 36.1 °F /  2.3 °C 30 in /  1015.8 hPa WNW 9 mph /  14.5 km/h 19 mph /  30.6 km/h 83 % 0 in /  0.0 mm
22:27 40.8 °F /  4.9 °C 36.1 °F /  2.3 °C 30 in /  1015.8 hPa NW 7 mph /  11.3 km/h 13 mph /  20.9 km/h 83 % 0 in /  0.0 mm
22:32 41 °F /  5.0 °C 36.3 °F /  2.4 °C 30 in /  1015.8 hPa NW 5 mph /  8.0 km/h 13 mph /  20.9 km/h 83 % 0 in /  0.0 mm
22:37 41 °F /  5.0 °C 36.3 °F /  2.4 °C 30 in /  1015.8 hPa NW 8 mph /  12.9 km/h 13 mph /  20.9 km/h 83 % 0 in /  0.0 mm
22:42 41 °F /  5.0 °C 36.3 °F /  2.4 °C 30 in /  1016.1 hPa West 5 mph /  8.0 km/h 13 mph /  20.9 km/h 83 % 0 in /  0.0 mm
22:47 41 °F /  5.0 °C 36.3 °F /  2.4 °C 30 in /  1016.1 hPa WNW 13 mph /  20.9 km/h 15 mph /  24.1 km/h 83 % 0 in /  0.0 mm
22:52 41 °F /  5.0 °C 36.3 °F /  2.4 °C 30 in /  1016.1 hPa WNW 5 mph /  8.0 km/h 17 mph /  27.4 km/h 83 % 0 in /  0.0 mm
23:02 41 °F /  5.0 °C 36.3 °F /  2.4 °C 30 in /  1016.1 hPa NNW 8 mph /  12.9 km/h 17 mph /  27.4 km/h 83 % 0 in /  0.0 mm
23:07 41 °F /  5.0 °C 36.3 °F /  2.4 °C 30 in /  1015.8 hPa WNW 11 mph /  17.7 km/h 14 mph /  22.5 km/h 83 % 0 in /  0.0 mm
23:12 41.2 °F /  5.1 °C 36.5 °F /  2.5 °C 30 in /  1016.1 hPa NW 5 mph /  8.0 km/h 16 mph /  25.7 km/h 83 % 0 in /  0.0 mm
23:17 41.2 °F /  5.1 °C 36.5 °F /  2.5 °C 30 in /  1016.1 hPa NW 8 mph /  12.9 km/h 18 mph /  29.0 km/h 83 % 0 in /  0.0 mm
23:22 41.2 °F /  5.1 °C 36.5 °F /  2.5 °C 30 in /  1016.1 hPa North 7 mph /  11.3 km/h 18 mph /  29.0 km/h 83 % 0 in /  0.0 mm
23:27 41.2 °F /  5.1 °C 36.5 °F /  2.5 °C 30 in /  1016.1 hPa NW 10 mph /  16.1 km/h 16 mph /  25.7 km/h 83 % 0 in /  0.0 mm
23:32 41 °F /  5.0 °C 36.3 °F /  2.4 °C 30 in /  1016.1 hPa WNW 7 mph /  11.3 km/h 16 mph /  25.7 km/h 83 % 0 in /  0.0 mm
23:37 41.2 °F /  5.1 °C 36.5 °F /  2.5 °C 30 in /  1016.1 hPa NW 4 mph /  6.4 km/h 16 mph /  25.7 km/h 83 % 0 in /  0.0 mm
23:42 41.2 °F /  5.1 °C 36.5 °F /  2.5 °C 30 in /  1016.5 hPa NW 5 mph /  8.0 km/h 16 mph /  25.7 km/h 83 % 0 in /  0.0 mm
23:52 41 °F /  5.0 °C 36.3 °F /  2.4 °C 30 in /  1016.5 hPa WNW 10 mph /  16.1 km/h 16 mph /  25.7 km/h 83 % 0 in /  0.0 mm
23:57 41 °F /  5.0 °C 36.3 °F /  2.4 °C 30 in /  1016.5 hPa NW 4 mph /  6.4 km/h 16 mph /  25.7 km/h 83 % 0 in /  0.0 mm
Meteo18
Compliments of Weather Underground - 4 mb

Script developed by  Jim McMurry - jmcmurry@mwt.net Adapted for the template by  Wim van der Kuil - Leuven-Template.eu

You find our weather info also at:

European Weather Network

Weather Underground

Equipment we use:

Weather-station
Davis Vue

Weather-program
Meteohub

Weather-server
Raspberry PI 2 B+

Provider
1 and 1

Davis Vue

Meteohub

Raspberry PI 2 B+

1 and 1